Time;durP1;ratioP1;P1;durP2;ratioP2;P2;SDS_P1;SDS_P2;PMS_P1;PMS_P2;Temp;Humidity;BMP_temperature;BMP_pressure;BME280_temperature;BME280_humidity;BME280_pressure;Samples;Min_cycle;Max_cycle;Signal;HPM_P1;HPM_P2
2023/11/26 00:01:42;;;;;;;3.80;2.37;;;;;;;0.69;100.00;96606.78;6193667;28;20201;-40
2023/11/26 00:04:44;;;;;;;2.60;2.40;;;;;;;0.67;100.00;96606.19;6194307;28;20205;-41
2023/11/26 00:07:47;;;;;;;5.50;3.47;;;;;;;0.68;100.00;96599.13;6193707;28;20204;-40
2023/11/26 00:10:51;;;;;;;2.77;2.40;;;;;;;0.89;100.00;96605.94;6191517;28;20193;-41
2023/11/26 00:13:53;;;;;;;1.60;1.50;;;;;;;0.70;100.00;96611.03;6193019;28;20552;-42
2023/11/26 00:16:56;;;;;;;2.63;1.83;;;;;;;0.42;100.00;96597.38;6192777;28;20665;-41
2023/11/26 00:19:58;;;;;;;1.90;1.80;;;;;;;0.40;100.00;96620.34;6197576;28;20201;-41
2023/11/26 00:23:01;;;;;;;2.10;1.90;;;;;;;0.32;100.00;96626.59;6181162;28;20206;-42
2023/11/26 00:26:03;;;;;;;2.40;2.10;;;;;;;0.28;100.00;96632.44;6197302;28;20256;-41
2023/11/26 00:29:06;;;;;;;2.20;1.50;;;;;;;0.25;100.00;96634.47;6195429;28;20208;-40
2023/11/26 00:32:08;;;;;;;2.10;1.80;;;;;;;0.21;100.00;96633.25;6196734;28;20225;-42
2023/11/26 00:35:12;;;;;;;2.70;2.20;;;;;;;0.16;100.00;96642.72;6196949;28;20209;-42
2023/11/26 00:38:14;;;;;;;2.83;2.50;;;;;;;0.37;100.00;96641.72;6196818;28;20662;-40
2023/11/26 00:41:16;;;;;;;2.43;2.07;;;;;;;0.31;100.00;96643.31;6179079;28;20267;-40
2023/11/26 00:44:19;;;;;;;2.20;1.73;;;;;;;0.05;100.00;96617.13;6197398;28;20301;-41
2023/11/26 00:47:21;;;;;;;2.27;2.03;;;;;;;0.18;100.00;96654.59;6197524;28;20562;-41
2023/11/26 00:50:23;;;;;;;2.07;1.87;;;;;;;0.14;100.00;96663.84;6178374;28;20378;-42
2023/11/26 00:53:25;;;;;;;2.10;1.90;;;;;;;0.09;100.00;96661.03;6196068;28;20579;-42
2023/11/26 00:56:28;;;;;;;3.30;2.60;;;;;;;0.38;100.00;96662.44;6196341;28;20848;-43
2023/11/26 00:59:30;;;;;;;2.80;2.60;;;;;;;0.49;100.00;96669.72;6197642;28;20193;-41
2023/11/26 01:02:34;;;;;;;3.23;2.70;;;;;;;0.58;100.00;96672.13;6197278;28;20185;-43
2023/11/26 01:05:37;;;;;;;2.30;2.10;;;;;;;0.87;100.00;96660.38;6197337;28;20279;-42
2023/11/26 01:08:40;;;;;;;2.53;2.00;;;;;;;0.81;100.00;96663.81;6197507;28;20305;-41
2023/11/26 01:11:43;;;;;;;3.37;2.70;;;;;;;0.84;100.00;96666.03;6162239;28;20221;-41
2023/11/26 01:14:46;;;;;;;2.20;2.00;;;;;;;0.86;100.00;96677.13;6196390;28;20327;-42
2023/11/26 01:17:48;;;;;;;2.80;2.40;;;;;;;0.79;100.00;96682.38;6195883;28;20611;-42
2023/11/26 01:20:51;;;;;;;2.40;2.20;;;;;;;0.85;100.00;96691.25;6195912;28;20686;-41
2023/11/26 01:23:53;;;;;;;2.40;2.17;;;;;;;0.71;100.00;96695.69;6180182;28;20197;-41
2023/11/26 01:26:56;;;;;;;3.00;2.00;;;;;;;0.56;100.00;96701.16;6179005;28;20205;-41
2023/11/26 01:29:58;;;;;;;2.27;2.07;;;;;;;0.58;100.00;96683.41;6192725;28;20586;-40
2023/11/26 01:33:01;;;;;;;2.40;2.20;;;;;;;1.00;100.00;96707.56;6174509;28;20249;-40
2023/11/26 01:36:09;;;;;;;2.70;2.50;;;;;;;0.76;100.00;96709.81;6200446;28;20202;-40
2023/11/26 01:39:12;;;;;;;2.20;2.00;;;;;;;1.05;100.00;96704.31;6197771;28;20203;-41
2023/11/26 01:42:14;;;;;;;2.33;2.13;;;;;;;0.91;100.00;96688.59;6186272;28;20205;-43
2023/11/26 01:45:16;;;;;;;2.73;2.47;;;;;;;0.90;100.00;96700.09;6203403;28;20197;-41
2023/11/26 01:48:18;;;;;;;2.40;2.20;;;;;;;1.09;100.00;96708.94;6203108;28;20197;-41
2023/11/26 01:51:21;;;;;;;2.40;2.13;;;;;;;1.08;100.00;96706.50;6202307;28;20669;-41
2023/11/26 01:54:23;;;;;;;2.30;2.10;;;;;;;0.99;100.00;96706.75;6179541;28;20201;-41
2023/11/26 01:57:25;;;;;;;2.77;2.30;;;;;;;0.92;100.00;96708.56;6194192;28;20204;-42
2023/11/26 02:00:27;;;;;;;2.93;2.73;;;;;;;0.78;100.00;96714.84;6162782;28;20686;-41
2023/11/26 02:03:29;;;;;;;4.07;2.93;;;;;;;0.77;100.00;96708.78;6197128;28;20202;-41
2023/11/26 02:06:31;;;;;;;2.40;2.20;;;;;;;0.83;100.00;96711.59;6199025;28;20188;-42
2023/11/26 02:09:34;;;;;;;2.60;2.40;;;;;;;0.57;100.00;96694.09;6197235;28;20217;-40
2023/11/26 02:12:36;;;;;;;2.97;2.67;;;;;;;0.78;100.00;96723.50;6202699;28;20259;-41
2023/11/26 02:15:38;;;;;;;3.07;2.77;;;;;;;0.66;100.00;96727.75;6202516;28;20555;-40
2023/11/26 02:18:41;;;;;;;5.10;3.83;;;;;;;0.50;100.00;96712.44;6184494;28;20212;-42
2023/11/26 02:21:44;;;;;;;3.00;2.70;;;;;;;0.57;100.00;96722.91;6200890;28;20690;-41
2023/11/26 02:24:47;;;;;;;2.73;2.53;;;;;;;0.50;100.00;96715.88;6187481;28;20197;-41
2023/11/26 02:27:50;;;;;;;2.90;2.63;;;;;;;0.49;100.00;96729.16;6194986;28;20282;-41
2023/11/26 02:30:52;;;;;;;3.70;2.20;;;;;;;0.45;100.00;96723.53;6176514;28;20612;-42
2023/11/26 02:33:54;;;;;;;2.60;2.40;;;;;;;0.40;100.00;96730.38;6194076;28;20730;-42
2023/11/26 02:36:57;;;;;;;3.97;2.37;;;;;;;0.33;100.00;96722.50;6196482;28;20405;-41
2023/11/26 02:39:59;;;;;;;3.37;2.90;;;;;;;0.31;100.00;96731.59;6177091;28;20662;-42
2023/11/26 02:43:02;;;;;;;2.93;2.37;;;;;;;0.29;100.00;96736.19;6194142;28;20743;-42
2023/11/26 02:46:04;;;;;;;2.87;2.57;;;;;;;0.25;100.00;96731.38;6174601;28;20784;-41
2023/11/26 02:49:08;;;;;;;4.10;2.43;;;;;;;0.23;100.00;96746.47;6178478;28;20212;-41
2023/11/26 02:52:10;;;;;;;2.90;2.60;;;;;;;0.22;100.00;96744.06;6176702;28;20348;-42
2023/11/26 02:55:13;;;;;;;3.17;2.50;;;;;;;0.16;100.00;96753.53;6194743;28;20696;-43
2023/11/26 02:58:16;;;;;;;3.17;2.87;;;;;;;0.17;100.00;96762.97;6191151;28;20209;-41
2023/11/26 03:01:19;;;;;;;2.73;2.47;;;;;;;0.25;100.00;96752.34;6195564;28;20258;-41
2023/11/26 03:04:23;;;;;;;2.73;2.30;;;;;;;0.19;100.00;96758.34;6174329;28;20688;-40
2023/11/26 03:07:27;;;;;;;2.27;1.97;;;;;;;0.46;100.00;96742.69;6196357;28;20272;-41
2023/11/26 03:13:51;;;;;;;2.63;1.83;;;;;;;0.32;100.00;96756.75;6179644;28;20725;-40
2023/11/26 03:16:54;;;;;;;2.67;2.10;;;;;;;0.08;100.00;96734.56;6179269;28;20619;-41
2023/11/26 03:19:56;;;;;;;2.40;2.13;;;;;;;0.38;100.00;96758.56;6177931;28;20576;-42
2023/11/26 03:22:58;;;;;;;2.00;1.70;;;;;;;0.53;100.00;96761.81;6178642;28;20204;-42
2023/11/26 03:26:00;;;;;;;2.80;2.10;;;;;;;0.39;100.00;96747.09;6180391;28;20292;-41
2023/11/26 03:29:03;;;;;;;2.37;1.43;;;;;;;0.58;100.00;96771.69;6188040;28;20202;-40
2023/11/26 03:32:06;;;;;;;2.80;1.67;;;;;;;0.64;100.00;96781.38;6195187;28;20239;-41
2023/11/26 03:35:08;;;;;;;1.47;1.37;;;;;;;0.39;100.00;96734.78;6231732;28;20208;-42
2023/11/26 03:38:14;;;;;;;1.63;1.10;;;;;;;0.53;100.00;96780.16;6215733;28;20196;-42
2023/11/26 03:41:16;;;;;;;3.07;1.50;;;;;;;0.37;100.00;96777.94;6217468;28;20708;-41
2023/11/26 03:44:19;;;;;;;1.20;1.10;;;;;;;0.48;100.00;96791.22;6217800;28;20675;-41
2023/11/26 03:47:21;;;;;;;1.50;1.30;;;;;;;0.27;100.00;96777.50;6217157;28;20194;-41
2023/11/26 03:50:23;;;;;;;1.40;1.03;;;;;;;0.33;100.00;96816.81;6216763;28;20211;-40
2023/11/26 03:53:25;;;;;;;1.13;0.90;;;;;;;0.48;100.00;96825.28;6218510;28;20223;-40
2023/11/26 03:56:28;;;;;;;1.73;1.07;;;;;;;0.42;100.00;96833.97;6224363;28;20192;-40
2023/11/26 03:59:30;;;;;;;1.40;1.13;;;;;;;0.58;100.00;96824.09;6222126;28;20346;-41
2023/11/26 04:02:33;;;;;;;2.40;1.43;;;;;;;0.63;100.00;96829.56;6221867;28;20199;-40
2023/11/26 04:05:35;;;;;;;5.87;2.80;;;;;;;0.69;99.56;96834.00;6222170;28;20205;-41
2023/11/26 04:08:37;;;;;;;0.93;0.93;;;;;;;0.53;100.00;96822.09;6222173;28;20223;-42
2023/11/26 04:11:39;;;;;;;1.70;1.20;;;;;;;0.57;99.41;96825.91;6221920;28;20208;-40
2023/11/26 04:14:59;;;;;;;1.30;1.20;;;;;;;0.55;100.00;96829.75;6222117;28;20197;-41
2023/11/26 04:18:04;;;;;;;1.60;1.40;;;;;;;0.37;99.95;96827.69;6228351;28;20677;-40
2023/11/26 04:21:09;;;;;;;1.00;0.90;;;;;;;0.66;96.93;96834.41;6219359;28;20244;-41
2023/11/26 04:24:12;;;;;;;2.27;1.70;;;;;;;0.49;98.48;96840.03;6221311;28;20196;-41
2023/11/26 04:27:21;;;;;;;3.07;1.13;;;;;;;0.59;96.05;96844.06;6222022;28;20874;-42
2023/11/26 04:30:23;;;;;;;1.53;1.07;;;;;;;0.50;97.07;96820.69;6217721;28;20209;-43
2023/11/26 04:33:25;;;;;;;1.67;1.50;;;;;;;0.45;96.88;96844.06;6221639;28;20386;-42
2023/11/26 04:36:28;;;;;;;2.67;1.40;;;;;;;0.45;96.30;96851.91;6221194;28;20205;-40
2023/11/26 04:39:30;;;;;;;1.43;0.97;;;;;;;0.72;92.12;96846.72;6220553;28;20671;-40
2023/11/26 04:42:35;;;;;;;1.20;1.10;;;;;;;0.66;92.65;96853.56;6221532;28;20247;-42
2023/11/26 04:45:37;;;;;;;1.73;1.23;;;;;;;0.69;92.01;96857.59;6228220;28;20225;-41
2023/11/26 04:48:39;;;;;;;1.47;1.00;;;;;;;0.78;90.93;96859.00;6220906;28;20673;-40
2023/11/26 04:51:41;;;;;;;2.13;1.00;;;;;;;0.58;93.09;96869.47;6222036;28;20188;-40
2023/11/26 04:54:43;;;;;;;2.10;1.40;;;;;;;0.73;91.10;96864.84;6219637;28;20225;-39
2023/11/26 04:57:49;;;;;;;5.23;2.70;;;;;;;0.50;92.62;96872.28;6219393;28;20208;-41
2023/11/26 05:00:54;;;;;;;1.07;0.97;;;;;;;0.57;91.70;96880.94;6220395;28;20192;-40
2023/11/26 05:03:56;;;;;;;1.33;1.00;;;;;;;0.66;89.62;96885.00;6220930;28;20279;-42
2023/11/26 05:06:58;;;;;;;5.80;3.13;;;;;;;0.52;90.63;96893.84;6221268;28;20205;-41
2023/11/26 05:10:00;;;;;;;1.20;1.10;;;;;;;0.53;90.29;96890.22;6220826;28;20208;-40
2023/11/26 05:13:02;;;;;;;1.00;0.90;;;;;;;0.40;89.70;96890.19;6220337;28;20643;-41
2023/11/26 05:16:05;;;;;;;1.40;0.90;;;;;;;0.48;90.00;96905.72;6221161;28;20196;-40
2023/11/26 05:19:07;;;;;;;1.30;0.73;;;;;;;0.45;90.96;96922.66;6221486;28;20196;-41
2023/11/26 05:22:09;;;;;;;1.30;0.83;;;;;;;0.45;90.95;96921.84;6220985;28;20217;-41
2023/11/26 05:25:11;;;;;;;1.70;0.80;;;;;;;0.62;88.29;96925.72;6220029;28;20197;-41
2023/11/26 05:28:14;;;;;;;1.90;0.90;;;;;;;0.67;86.09;96936.41;6218813;28;20201;-41
2023/11/26 05:31:18;;;;;;;0.80;0.80;;;;;;;0.56;86.75;96941.44;6220713;28;20204;-40
2023/11/26 05:34:20;;;;;;;2.57;0.93;;;;;;;0.49;87.55;96954.50;6218943;28;20235;-40
2023/11/26 05:37:22;;;;;;;2.17;1.07;;;;;;;0.42;87.33;96958.91;6215673;28;20197;-42
2023/11/26 05:40:25;;;;;;;3.03;1.00;;;;;;;0.38;87.54;96948.00;6220150;28;20663;-41
2023/11/26 05:43:29;;;;;;;1.00;0.73;;;;;;;0.22;88.08;96958.81;6219993;28;20189;-41
2023/11/26 05:46:31;;;;;;;2.90;1.10;;;;;;;0.10;89.81;96958.56;6220038;28;20208;-41
2023/11/26 05:49:33;;;;;;;1.40;1.10;;;;;;;-0.01;90.07;96952.03;6219800;28;20746;-50
2023/11/26 05:52:36;;;;;;;2.10;1.00;;;;;;;0.05;88.84;96957.50;6219558;28;20593;-41
2023/11/26 05:55:38;;;;;;;0.63;0.60;;;;;;;-0.14;89.63;96957.22;6218794;28;20817;-40
2023/11/26 05:58:40;;;;;;;1.00;0.80;;;;;;;-0.01;88.23;96993.13;6219893;28;20279;-40
2023/11/26 06:01:44;;;;;;;1.17;1.00;;;;;;;-0.03;87.75;96995.94;6219369;28;20193;-41
2023/11/26 06:04:46;;;;;;;1.60;1.13;;;;;;;-0.01;88.29;97006.22;6220269;28;20237;-39
2023/11/26 06:07:49;;;;;;;1.47;0.80;;;;;;;0.01;88.04;96999.00;6219305;28;20335;-39
2023/11/26 06:10:51;;;;;;;0.63;0.63;;;;;;;0.07;86.25;97021.78;6217608;28;20363;-40
2023/11/26 06:13:53;;;;;;;1.40;0.97;;;;;;;0.15;84.82;97020.84;6218770;28;20205;-41
2023/11/26 06:16:55;;;;;;;1.63;0.90;;;;;;;-0.07;86.74;97020.88;6218962;28;20749;-40
2023/11/26 06:19:57;;;;;;;1.63;0.90;;;;;;;-0.19;87.26;97032.09;6217274;28;20576;-41
2023/11/26 06:22:59;;;;;;;1.23;0.80;;;;;;;-0.02;86.51;97034.22;6217792;28;20208;-42
2023/11/26 06:26:01;;;;;;;0.77;0.63;;;;;;;-0.19;89.58;97037.31;6216612;28;20209;-41
2023/11/26 06:29:05;;;;;;;1.20;0.77;;;;;;;0.06;87.56;97030.66;6217269;28;20203;-42
2023/11/26 06:32:07;;;;;;;1.23;0.90;;;;;;;-0.16;87.53;97042.97;6218958;28;20228;-40
2023/11/26 06:35:10;;;;;;;1.07;0.73;;;;;;;-0.26;89.39;97035.44;6218534;28;20215;-41
2023/11/26 06:38:14;;;;;;;1.53;1.20;;;;;;;-0.27;90.81;97038.25;6223407;28;20193;-39
2023/11/26 06:41:28;;;;;;;4.13;0.70;;;;;;;-0.17;86.38;97014.38;6220424;28;20704;-41
2023/11/26 06:44:30;;;;;;;1.43;0.70;;;;;;;-0.10;85.42;97050.06;6223152;28;20619;-40
2023/11/26 06:47:33;;;;;;;1.03;0.93;;;;;;;0.03;85.34;97072.09;6219703;28;20209;-40
2023/11/26 06:50:35;;;;;;;0.53;0.53;;;;;;;-0.16;87.85;97073.56;6217546;28;20653;-39
2023/11/26 06:53:39;;;;;;;2.17;0.90;;;;;;;-0.17;88.64;97085.03;6218250;28;20204;-42
2023/11/26 06:56:41;;;;;;;2.53;0.80;;;;;;;-0.32;91.10;97072.84;6217807;28;20727;-41
2023/11/26 06:59:43;;;;;;;1.13;1.00;;;;;;;-0.33;90.94;97086.13;6218752;28;20192;-41
2023/11/26 07:02:45;;;;;;;1.10;0.83;;;;;;;-0.49;91.70;97099.41;6217461;28;20582;-42
2023/11/26 07:05:47;;;;;;;1.13;0.93;;;;;;;-0.56;91.32;97102.78;6218533;28;20211;-41
2023/11/26 07:08:50;;;;;;;1.07;0.90;;;;;;;-0.85;92.30;97074.91;6218456;28;20275;-41
2023/11/26 07:11:54;;;;;;;0.60;0.60;;;;;;;-0.63;96.20;97117.63;6217977;28;20200;-40
2023/11/26 07:14:57;;;;;;;1.00;0.73;;;;;;;-0.40;89.29;97108.78;6214129;28;20234;-41
2023/11/26 07:17:59;;;;;;;0.60;0.60;;;;;;;-0.36;86.90;97116.06;6217505;28;20616;-40
2023/11/26 07:21:03;;;;;;;1.10;0.87;;;;;;;-0.49;85.23;97129.03;6216427;28;20220;-41
2023/11/26 07:24:05;;;;;;;0.50;0.50;;;;;;;-0.52;84.55;97126.78;6217841;28;20774;-41
2023/11/26 07:27:07;;;;;;;0.67;0.67;;;;;;;-0.63;84.45;97135.13;6217302;28;20227;-43
2023/11/26 07:30:10;;;;;;;1.60;0.60;;;;;;;-0.50;85.38;97130.00;6216047;28;20205;-40
2023/11/26 07:33:13;;;;;;;0.53;0.53;;;;;;;-0.62;83.57;97121.03;6215059;28;20228;-42
2023/11/26 07:36:19;;;;;;;1.00;0.73;;;;;;;-0.52;81.62;97139.88;6217205;28;20200;-40
2023/11/26 07:39:21;;;;;;;1.47;0.60;;;;;;;-0.63;80.63;97137.72;6217299;28;20574;-41
2023/11/26 07:42:23;;;;;;;1.43;0.80;;;;;;;-0.69;81.35;97127.97;6217483;28;20200;-42
2023/11/26 07:45:28;;;;;;;0.50;0.50;;;;;;;-0.70;82.10;97145.50;6217317;28;20196;-43
2023/11/26 07:48:30;;;;;;;0.53;0.40;;;;;;;-0.49;76.46;97149.13;6216906;28;20200;-43
2023/11/26 07:51:33;;;;;;;0.67;0.50;;;;;;;-0.39;76.41;97162.75;6215605;28;20195;-41
2023/11/26 07:54:35;;;;;;;0.90;0.70;;;;;;;-0.52;77.92;97151.13;6215371;28;20216;-42
2023/11/26 07:57:37;;;;;;;0.73;0.53;;;;;;;-0.50;73.42;97157.97;6216656;28;20200;-43
2023/11/26 08:00:39;;;;;;;0.63;0.40;;;;;;;-0.28;70.33;97149.97;6216864;28;20286;-42
2023/11/26 08:03:41;;;;;;;0.70;0.40;;;;;;;-0.37;72.35;97155.50;6214910;28;20561;-43
2023/11/26 08:06:49;;;;;;;0.20;0.20;;;;;;;-0.38;73.80;97159.13;6217819;28;20199;-43
2023/11/26 08:09:52;;;;;;;0.87;0.70;;;;;;;-0.43;72.73;97162.31;6216938;28;20239;-41
2023/11/26 08:12:55;;;;;;;0.63;0.50;;;;;;;-0.51;75.91;97154.56;6217239;28;20257;-42
2023/11/26 08:15:57;;;;;;;0.83;0.50;;;;;;;-0.53;71.67;97130.41;6215566;28;20196;-42
2023/11/26 08:19:05;;;;;;;1.20;0.50;;;;;;;-0.42;72.54;97168.34;6217486;28;20204;-41
2023/11/26 08:22:08;;;;;;;1.00;0.57;;;;;;;-0.35;74.54;97174.44;6215548;28;20268;-43
2023/11/26 08:25:20;;;;;;;0.30;0.30;;;;;;;-0.33;72.73;97164.63;6217186;28;20741;-43
2023/11/26 08:28:27;;;;;;;1.20;0.70;;;;;;;-0.43;73.43;97146.59;6215128;28;20200;-42
2023/11/26 08:31:31;;;;;;;0.93;0.67;;;;;;;-0.14;72.56;97171.06;6214200;28;20255;-43
2023/11/26 08:34:38;;;;;;;0.93;0.40;;;;;;;-0.05;71.00;97162.06;6186860;28;20208;-42
2023/11/26 08:37:44;;;;;;;0.87;0.70;;;;;;;0.15;70.25;97168.31;6186237;28;20677;-42
2023/11/26 08:40:46;;;;;;;0.87;0.57;;;;;;;0.14;71.11;97184.19;6196582;28;20205;-43
2023/11/26 08:43:50;;;;;;;0.70;0.60;;;;;;;0.07;70.52;97184.13;6201396;28;20662;-41
2023/11/26 08:46:53;;;;;;;1.10;0.57;;;;;;;0.07;72.47;97209.53;6200446;28;20553;-42
2023/11/26 08:49:56;;;;;;;0.77;0.60;;;;;;;0.15;75.29;97210.22;6203809;28;20193;-42
2023/11/26 08:52:59;;;;;;;0.90;0.60;;;;;;;0.13;74.94;97200.91;6186244;28;20237;-41
2023/11/26 08:56:01;;;;;;;0.93;0.60;;;;;;;0.29;73.45;97212.94;6205670;28;20208;-42
2023/11/26 08:59:04;;;;;;;1.23;0.70;;;;;;;0.36;72.53;97219.06;6203384;28;20720;-42
2023/11/26 09:02:06;;;;;;;0.53;0.50;;;;;;;0.47;72.35;97227.22;6201743;28;20202;-43
2023/11/26 09:05:08;;;;;;;0.90;0.67;;;;;;;0.57;70.72;97226.06;6196301;28;20189;-42
2023/11/26 09:08:10;;;;;;;0.53;0.50;;;;;;;0.55;71.74;97231.53;6197653;28;20680;-41
2023/11/26 09:11:12;;;;;;;0.67;0.53;;;;;;;0.58;71.22;97220.63;6195964;28;20671;-42
2023/11/26 09:14:14;;;;;;;0.87;0.60;;;;;;;0.65;70.94;97228.56;6196854;28;20213;-41
2023/11/26 09:17:18;;;;;;;0.93;0.80;;;;;;;0.68;71.38;97228.97;6198157;28;20200;-41
2023/11/26 09:20:20;;;;;;;1.47;0.63;;;;;;;0.81;71.27;97230.91;6196526;28;20209;-41
2023/11/26 09:23:23;;;;;;;0.50;0.50;;;;;;;0.92;69.57;97229.56;6197016;28;20189;-41
2023/11/26 09:26:25;;;;;;;3.07;0.77;;;;;;;0.95;69.91;97229.19;6197730;28;20201;-41
2023/11/26 09:29:27;;;;;;;2.13;0.80;;;;;;;1.11;66.84;97230.69;6196405;28;20776;-41
2023/11/26 09:32:35;;;;;;;0.40;0.40;;;;;;;0.98;66.71;97199.94;6195123;28;20654;-42
2023/11/26 09:35:37;;;;;;;1.57;0.60;;;;;;;1.08;67.89;97250.25;6197170;28;20701;-42
2023/11/26 09:38:39;;;;;;;1.07;0.80;;;;;;;1.07;67.86;97227.63;6197669;28;20579;-42
2023/11/26 09:41:41;;;;;;;0.83;0.63;;;;;;;1.16;66.08;97230.94;6198204;28;20243;-45
2023/11/26 09:44:46;;;;;;;1.20;0.67;;;;;;;1.26;64.90;97219.06;6198904;28;20682;-43
2023/11/26 09:47:49;;;;;;;1.27;0.80;;;;;;;1.42;64.60;97222.38;6203113;28;20327;-42
2023/11/26 09:50:55;;;;;;;1.33;0.60;;;;;;;1.43;64.80;97226.63;6196826;28;20623;-43
2023/11/26 09:53:57;;;;;;;0.93;0.50;;;;;;;1.37;63.78;97222.97;6198013;28;20221;-41
2023/11/26 09:57:00;;;;;;;0.67;0.67;;;;;;;1.42;64.19;97222.38;6199426;28;20299;-42
2023/11/26 10:00:06;;;;;;;0.50;0.50;;;;;;;1.48;67.52;97229.50;6183072;28;20270;-42
2023/11/26 10:03:08;;;;;;;0.63;0.40;;;;;;;1.44;67.75;97226.44;6196989;28;20234;-43
2023/11/26 10:06:10;;;;;;;1.33;0.33;;;;;;;1.68;62.68;97214.63;6195300;28;20193;-43
2023/11/26 10:09:17;;;;;;;0.53;0.50;;;;;;;1.72;61.77;97215.81;6196848;28;20205;-43
2023/11/26 10:12:19;;;;;;;0.70;0.47;;;;;;;1.72;61.54;97205.31;6196240;28;20236;-44
2023/11/26 10:15:23;;;;;;;0.57;0.40;;;;;;;1.62;61.33;97202.25;6197519;28;20210;-43
2023/11/26 10:18:25;;;;;;;0.50;0.50;;;;;;;1.55;61.52;97235.56;6200411;28;20201;-42
2023/11/26 10:21:28;;;;;;;0.30;0.20;;;;;;;1.37;62.35;97201.16;6201288;28;20192;-46
2023/11/26 10:24:30;;;;;;;0.43;0.23;;;;;;;1.13;62.91;97232.09;6203167;28;20202;-42
2023/11/26 10:27:32;;;;;;;0.97;0.30;;;;;;;1.16;61.69;97246.66;6200713;28;20643;-42
2023/11/26 10:30:36;;;;;;;0.20;0.20;;;;;;;0.91;63.02;97230.56;6200451;28;20300;-43
2023/11/26 10:33:38;;;;;;;1.70;0.30;;;;;;;1.08;63.17;97259.91;6197109;28;20229;-41
2023/11/26 10:36:41;;;;;;;0.73;0.37;;;;;;;1.07;62.86;97253.06;6194126;28;20339;-42
2023/11/26 10:39:43;;;;;;;0.97;0.93;;;;;;;0.98;62.18;97260.25;6194175;28;20202;-42
2023/11/26 10:42:47;;;;;;;0.60;0.30;;;;;;;1.05;63.85;97240.16;6193714;28;20201;-42
2023/11/26 10:45:50;;;;;;;0.57;0.40;;;;;;;1.10;62.97;97229.88;6193374;28;20255;-43
2023/11/26 10:49:02;;;;;;;0.30;0.30;;;;;;;1.25;62.46;97233.19;6193891;28;20209;-45
2023/11/26 10:52:13;;;;;;;0.20;0.20;;;;;;;1.32;60.80;97216.69;6192936;28;20201;-42
2023/11/26 10:55:29;;;;;;;0.57;0.30;;;;;;;1.36;61.01;97223.97;6190506;28;20212;-42
2023/11/26 10:58:39;;;;;;;0.57;0.30;;;;;;;1.51;59.48;97214.13;6193735;28;20205;-42
2023/11/26 11:01:44;;;;;;;0.50;0.30;;;;;;;1.64;58.99;97220.47;6190312;28;20689;-41
2023/11/26 11:04:47;;;;;;;0.30;0.30;;;;;;;1.71;58.94;97227.34;6193464;28;20217;-44
2023/11/26 11:07:52;;;;;;;0.40;0.30;;;;;;;1.49;58.63;97231.09;6193351;28;20279;-40
2023/11/26 11:11:00;;;;;;;0.37;0.30;;;;;;;1.29;61.11;97225.75;6193645;28;20194;-41
2023/11/26 11:14:03;;;;;;;0.70;0.30;;;;;;;1.43;59.59;97232.69;6193446;28;20232;-41
2023/11/26 11:17:05;;;;;;;0.40;0.40;;;;;;;1.61;57.96;97223.47;6193575;28;20200;-41
2023/11/26 11:20:10;;;;;;;0.80;0.50;;;;;;;1.71;61.21;97232.59;6191268;28;20228;-43
2023/11/26 11:23:58;;;;;;;0.40;0.40;;;;;;;1.66;60.09;97245.50;6193130;28;20193;-41
2023/11/26 11:27:00;;;;;;;0.43;0.43;;;;;;;1.86;61.64;97229.81;6188239;28;20217;-40
2023/11/26 11:30:02;;;;;;;0.93;0.70;;;;;;;1.88;62.44;97229.63;6191788;28;20233;-41
2023/11/26 11:33:04;;;;;;;1.00;0.90;;;;;;;1.77;65.92;97221.31;6191726;28;20321;-41
2023/11/26 11:36:07;;;;;;;1.30;0.90;;;;;;;1.76;66.91;97229.38;6193094;28;20223;-41
2023/11/26 11:39:15;;;;;;;1.20;0.93;;;;;;;1.60;70.86;97243.66;6193310;28;20350;-40
2023/11/26 11:42:26;;;;;;;2.30;0.90;;;;;;;1.65;70.74;97232.56;6193619;28;20236;-40
2023/11/26 11:45:29;;;;;;;1.20;1.10;;;;;;;1.61;71.90;97232.16;6190152;28;20200;-40
2023/11/26 11:48:55;;;;;;;1.10;0.80;;;;;;;1.58;74.38;97235.19;6193214;28;20197;-41
2023/11/26 11:51:59;;;;;;;1.40;0.80;;;;;;;1.45;70.03;97214.13;6181994;28;20778;-42
2023/11/26 11:55:35;;;;;;;0.87;0.70;;;;;;;1.57;67.89;97241.41;6192209;28;20205;-42
2023/11/26 11:58:37;;;;;;;2.43;0.90;;;;;;;1.59;69.38;97238.63;6192544;28;20644;-41
2023/11/26 12:01:41;;;;;;;2.60;1.20;;;;;;;1.59;71.80;97239.44;6191592;28;20212;-41
2023/11/26 12:04:48;;;;;;;0.80;0.60;;;;;;;1.53;73.24;97237.59;6191789;28;20272;-42
2023/11/26 12:07:52;;;;;;;1.43;0.90;;;;;;;1.58;75.09;97250.94;6191159;28;20194;-41
2023/11/26 12:11:01;;;;;;;1.67;0.90;;;;;;;1.66;74.77;97232.38;6192418;28;20284;-42
2023/11/26 12:14:03;;;;;;;1.07;0.97;;;;;;;1.49;75.05;97233.72;6194347;28;20222;-40
2023/11/26 12:17:08;;;;;;;1.73;1.00;;;;;;;1.37;75.38;97240.53;6180415;28;20420;-40
2023/11/26 12:20:10;;;;;;;1.20;1.07;;;;;;;1.28;75.85;97206.59;6197537;28;20190;-39
2023/11/26 12:23:12;;;;;;;0.93;0.93;;;;;;;0.77;74.31;97109.88;6197235;28;20654;-40
2023/11/26 12:26:14;;;;;;;1.30;0.80;;;;;;;1.62;75.06;97225.09;6197406;28;20212;-40
2023/11/26 12:29:27;;;;;;;1.60;1.00;;;;;;;1.73;74.60;97219.28;6192612;28;20283;-39
2023/11/26 12:32:29;;;;;;;1.53;1.10;;;;;;;1.77;74.62;97229.22;6195232;28;20320;-40
2023/11/26 12:35:33;;;;;;;1.20;0.90;;;;;;;1.72;75.11;97215.81;6196768;28;20201;-41
2023/11/26 12:38:41;;;;;;;1.17;0.80;;;;;;;1.83;72.78;97219.72;6195888;28;20201;-39
2023/11/26 12:41:45;;;;;;;1.10;0.87;;;;;;;1.70;74.16;97222.28;6197050;28;20213;-40
2023/11/26 12:44:47;;;;;;;1.13;0.87;;;;;;;1.79;71.68;97214.03;6196698;28;20197;-40
2023/11/26 12:47:55;;;;;;;2.23;0.97;;;;;;;1.75;72.79;97220.69;6194985;28;20280;-40
2023/11/26 12:50:57;;;;;;;1.83;1.00;;;;;;;1.75;73.35;97217.25;6195818;28;20267;-39
2023/11/26 12:53:59;;;;;;;1.50;0.90;;;;;;;1.76;72.58;97221.50;6196506;28;20258;-40
2023/11/26 12:57:03;;;;;;;0.73;0.73;;;;;;;1.78;71.41;97204.56;6193902;28;20326;-40
2023/11/26 13:00:10;;;;;;;1.00;0.70;;;;;;;1.91;69.53;97234.47;6196003;28;20205;-41
2023/11/26 13:03:20;;;;;;;0.97;0.77;;;;;;;1.66;70.83;97215.81;6196187;28;20201;-40
2023/11/26 13:06:25;;;;;;;1.33;0.80;;;;;;;1.67;70.50;97223.50;6194144;28;20190;-39
2023/11/26 13:09:27;;;;;;;1.43;0.60;;;;;;;1.79;68.35;97237.69;6196234;28;20619;-39
2023/11/26 13:12:29;;;;;;;1.93;0.70;;;;;;;1.84;65.24;97247.59;6195757;28;20268;-39
2023/11/26 13:15:31;;;;;;;0.60;0.60;;;;;;;1.77;66.79;97234.47;6195903;28;20224;-39
2023/11/26 13:18:33;;;;;;;2.33;0.70;;;;;;;1.73;66.96;97237.66;6194020;28;20264;-40
2023/11/26 13:21:48;;;;;;;0.53;0.50;;;;;;;1.75;67.13;97236.44;6196101;28;20225;-39
2023/11/26 13:24:50;;;;;;;1.27;0.60;;;;;;;1.68;68.55;97245.31;6194540;28;20272;-40
2023/11/26 13:27:52;;;;;;;1.13;0.70;;;;;;;1.64;67.08;97250.16;6196073;28;20678;-40
2023/11/26 13:30:55;;;;;;;1.10;0.53;;;;;;;1.58;67.91;97248.31;6176518;28;20205;-40
2023/11/26 13:33:57;;;;;;;1.00;0.77;;;;;;;1.55;69.14;97261.81;6195500;28;20247;-40
2023/11/26 13:36:59;;;;;;;1.37;0.70;;;;;;;1.33;71.22;97263.72;6195671;28;20786;-39
2023/11/26 13:40:02;;;;;;;1.07;0.63;;;;;;;1.28;69.95;97260.84;6195484;28;20207;-40
2023/11/26 13:43:08;;;;;;;0.53;0.50;;;;;;;1.29;71.86;97265.94;6195609;28;20204;-41
2023/11/26 13:46:10;;;;;;;1.93;0.60;;;;;;;1.28;71.94;97271.34;6195367;28;20325;-41
2023/11/26 13:49:13;;;;;;;1.07;0.50;;;;;;;1.29;72.95;97288.72;6195164;28;20197;-42
2023/11/26 13:52:15;;;;;;;0.77;0.50;;;;;;;1.23;72.75;97269.31;6195083;28;20319;-42
2023/11/26 13:55:18;;;;;;;1.43;0.63;;;;;;;1.27;73.73;97280.22;6177592;28;20682;-43
2023/11/26 13:58:20;;;;;;;0.63;0.57;;;;;;;1.18;74.49;97287.47;6195242;28;20206;-42
2023/11/26 14:01:23;;;;;;;0.63;0.50;;;;;;;1.19;74.90;97291.69;6194818;28;20620;-41
2023/11/26 14:04:25;;;;;;;0.50;0.50;;;;;;;1.48;71.01;97277.53;6194845;28;20331;-42
2023/11/26 14:07:28;;;;;;;1.63;0.67;;;;;;;1.47;70.94;97296.91;6192326;28;20216;-43
2023/11/26 14:10:31;;;;;;;0.93;0.63;;;;;;;1.22;74.27;97293.13;6194863;28;20716;-43
2023/11/26 14:13:33;;;;;;;0.53;0.50;;;;;;;1.11;76.28;97297.09;6194833;28;20192;-41
2023/11/26 14:16:35;;;;;;;0.67;0.60;;;;;;;0.96;73.30;97267.53;6194784;28;20217;-40
2023/11/26 14:19:38;;;;;;;2.37;0.67;;;;;;;1.37;69.57;97295.63;6195227;28;20204;-41
2023/11/26 14:22:40;;;;;;;0.80;0.50;;;;;;;1.21;71.32;97302.00;6192588;28;20204;-41
2023/11/26 14:25:44;;;;;;;1.50;0.73;;;;;;;1.13;74.99;97307.38;6194712;28;20642;-42
2023/11/26 14:28:47;;;;;;;1.07;0.67;;;;;;;1.16;71.61;97312.25;6192968;28;20208;-43
2023/11/26 14:31:49;;;;;;;1.23;0.80;;;;;;;1.06;71.17;97320.44;6194329;28;20220;-40
2023/11/26 14:34:52;;;;;;;0.53;0.50;;;;;;;0.94;74.53;97320.16;6188177;28;20292;-40